createdAt,value
2018-01-03T00:00:20.897Z,92.40
2018-01-03T00:01:25.699Z,92.61
2018-01-03T00:02:30.105Z,92.64
2018-01-03T00:03:34.585Z,92.63
2018-01-03T00:04:39.051Z,92.42
2018-01-03T00:05:43.594Z,92.66
2018-01-03T00:06:48.161Z,92.43
2018-01-03T00:07:53.502Z,92.52
2018-01-03T00:08:57.847Z,92.44
2018-01-03T00:10:02.376Z,92.52
2018-01-03T00:11:06.922Z,92.44
2018-01-03T00:12:11.318Z,92.16
2018-01-03T00:13:33.213Z,92.47
2018-01-03T00:14:37.689Z,92.62
2018-01-03T00:15:42.374Z,92.80
2018-01-03T00:16:47.158Z,92.61
2018-01-03T00:17:52.138Z,92.70
2018-01-03T00:18:56.677Z,92.37
2018-01-03T00:20:01.511Z,92.40
2018-01-03T00:21:05.909Z,92.38
2018-01-03T00:22:10.740Z,92.42
2018-01-03T00:23:15.106Z,92.51
2018-01-03T00:24:24.539Z,92.45
2018-01-03T00:25:28.937Z,92.62
2018-01-03T00:26:33.639Z,92.67
2018-01-03T00:27:38.165Z,92.73
2018-01-03T00:28:42.635Z,92.97
2018-01-03T00:29:47.143Z,93.08
2018-01-03T00:30:51.459Z,93.19
2018-01-03T00:31:56.104Z,93.26
2018-01-03T00:33:00.852Z,93.34
2018-01-03T00:34:05.325Z,92.91
2018-01-03T00:35:09.752Z,92.81
2018-01-03T00:36:14.124Z,92.63
2018-01-03T00:37:18.589Z,92.60
2018-01-03T00:38:22.989Z,92.99
2018-01-03T00:39:28.228Z,92.74
2018-01-03T00:40:32.522Z,93.05
2018-01-03T00:41:37.076Z,92.93
2018-01-03T00:42:41.618Z,92.89
2018-01-03T00:43:47.876Z,92.67
2018-01-03T00:44:52.239Z,92.68
2018-01-03T00:45:56.981Z,92.96
2018-01-03T00:47:01.939Z,92.82
2018-01-03T00:48:06.416Z,93.04
2018-01-03T00:49:10.769Z,92.97
2018-01-03T00:50:15.600Z,93.01
2018-01-03T00:51:19.988Z,92.86
2018-01-03T00:52:25.328Z,92.82
2018-01-03T00:53:29.641Z,92.66
2018-01-03T00:54:34.108Z,92.88
2018-01-03T00:55:38.387Z,92.71
2018-01-03T00:56:43.076Z,92.61
2018-01-03T00:57:47.936Z,92.37
2018-01-03T00:58:52.361Z,92.44
2018-01-03T00:59:56.694Z,92.31
2018-01-03T01:01:01.420Z,92.63
2018-01-03T01:02:05.886Z,92.68
2018-01-03T01:03:23.951Z,92.57
2018-01-03T01:04:29.426Z,92.75
2018-01-03T01:05:33.832Z,92.69
2018-01-03T01:06:38.182Z,92.64
2018-01-03T01:07:42.578Z,92.51
2018-01-03T01:08:47.832Z,92.29
2018-01-03T01:09:52.171Z,92.51
2018-01-03T01:10:56.618Z,92.71
2018-01-03T01:12:01.046Z,92.60
2018-01-03T01:13:05.491Z,92.76
2018-01-03T01:14:10.165Z,92.92
2018-01-03T01:15:17.958Z,92.54
2018-01-03T01:16:23.626Z,92.57
2018-01-03T01:17:36.602Z,92.55
2018-01-03T01:18:41.027Z,92.72
2018-01-03T01:19:45.358Z,92.56
2018-01-03T01:20:50.588Z,92.58
2018-01-03T01:21:55.026Z,92.91
2018-01-03T01:22:59.390Z,92.72
2018-01-03T01:24:04.265Z,92.87
2018-01-03T01:25:08.786Z,92.94
2018-01-03T01:26:13.460Z,92.68
2018-01-03T01:27:18.140Z,92.79
2018-01-03T01:28:22.568Z,92.64
2018-01-03T01:29:26.945Z,92.57
2018-01-03T01:30:31.516Z,92.39
2018-01-03T01:31:35.954Z,92.58
2018-01-03T01:32:40.616Z,92.45
2018-01-03T01:33:45.385Z,92.65
2018-01-03T01:34:50.259Z,92.51
2018-01-03T01:35:54.598Z,92.72
2018-01-03T01:36:58.941Z,92.85
2018-01-03T01:38:03.382Z,92.87
2018-01-03T01:39:07.810Z,92.89
2018-01-03T01:40:13.993Z,92.71
2018-01-03T01:41:18.440Z,92.83
2018-01-03T01:42:22.980Z,93.04
2018-01-03T01:43:28.232Z,92.96
2018-01-03T01:44:32.904Z,92.74
2018-01-03T01:45:37.468Z,92.72
2018-01-03T01:46:42.333Z,92.85
2018-01-03T01:47:46.897Z,92.68
2018-01-03T01:48:59.865Z,92.51
2018-01-03T01:50:04.473Z,92.49
2018-01-03T01:51:08.931Z,92.59
2018-01-03T01:52:13.368Z,92.42
2018-01-03T01:53:18.024Z,92.38
2018-01-03T01:54:23.060Z,92.69
2018-01-03T01:55:27.760Z,92.98
2018-01-03T01:56:33.144Z,92.67
2018-01-03T01:57:37.625Z,92.73
2018-01-03T01:58:42.024Z,92.75
2018-01-03T01:59:46.404Z,92.35
2018-01-03T02:00:51.874Z,92.23
2018-01-03T02:01:56.268Z,92.07
2018-01-03T02:03:00.606Z,92.07
2018-01-03T02:04:05.096Z,92.33
2018-01-03T02:05:09.805Z,92.34
2018-01-03T02:06:14.488Z,92.27
2018-01-03T02:07:18.830Z,92.04
2018-01-03T02:08:23.164Z,92.02
2018-01-03T02:09:28.077Z,91.83
2018-01-03T02:10:32.484Z,91.74
2018-01-03T02:11:36.804Z,92.00
2018-01-03T02:12:41.484Z,92.07
2018-01-03T02:13:45.864Z,92.16
2018-01-03T02:14:53.148Z,92.30
2018-01-03T02:15:57.468Z,92.42
2018-01-03T02:17:02.085Z,92.30
2018-01-03T02:18:06.569Z,92.29
2018-01-03T02:19:11.280Z,92.22
2018-01-03T02:20:15.661Z,92.20
2018-01-03T02:21:20.047Z,92.46
2018-01-03T02:22:25.442Z,92.20
2018-01-03T02:23:29.769Z,91.95
2018-01-03T02:24:34.089Z,91.92
2018-01-03T02:25:38.911Z,92.16
2018-01-03T02:26:43.268Z,92.26
2018-01-03T02:27:48.683Z,92.38
2018-01-03T02:28:53.035Z,92.38
2018-01-03T02:29:57.669Z,92.21
2018-01-03T02:31:02.844Z,92.14
2018-01-03T02:32:07.133Z,92.10
2018-01-03T02:33:11.692Z,92.11
2018-01-03T02:34:16.033Z,92.30
2018-01-03T02:35:20.396Z,92.09
2018-01-03T02:36:25.776Z,91.85
2018-01-03T02:37:30.461Z,92.27
2018-01-03T02:38:35.455Z,92.26
2018-01-03T02:39:40.375Z,91.97
2018-01-03T02:40:44.702Z,92.00
2018-01-03T02:41:49.780Z,91.93
2018-01-03T02:42:54.321Z,92.00
2018-01-03T02:43:58.999Z,92.14
2018-01-03T02:45:05.318Z,92.04
2018-01-03T02:46:09.854Z,92.40
2018-01-03T02:47:14.210Z,92.37
2018-01-03T02:48:18.838Z,92.25
2018-01-03T02:49:23.413Z,92.43
2018-01-03T02:50:27.991Z,92.60
2018-01-03T02:51:32.355Z,92.58
2018-01-03T02:52:36.799Z,92.50
2018-01-03T02:53:41.452Z,92.42
2018-01-03T02:54:45.856Z,92.36
2018-01-03T02:55:50.237Z,92.30
2018-01-03T02:56:54.860Z,92.41
2018-01-03T02:57:59.224Z,92.65
2018-01-03T02:59:03.597Z,92.58
2018-01-03T03:00:18.523Z,92.50
2018-01-03T03:01:22.843Z,92.75
2018-01-03T03:02:27.943Z,92.89
2018-01-03T03:03:32.527Z,93.21
2018-01-03T03:04:37.005Z,92.94
2018-01-03T03:05:41.440Z,92.87
2018-01-03T03:06:46.037Z,92.84
2018-01-03T03:07:51.085Z,92.92
2018-01-03T03:08:55.444Z,92.90
2018-01-03T03:10:00.116Z,92.94
2018-01-03T03:11:04.622Z,92.79
2018-01-03T03:12:08.975Z,92.72
2018-01-03T03:13:13.360Z,92.76
2018-01-03T03:14:27.073Z,92.78
2018-01-03T03:15:32.107Z,92.79
2018-01-03T03:16:44.208Z,92.96
2018-01-03T03:17:49.482Z,92.81
2018-01-03T03:18:53.851Z,92.61
2018-01-03T03:19:58.192Z,92.60
2018-01-03T03:21:02.837Z,92.66
2018-01-03T03:22:07.457Z,92.69
2018-01-03T03:23:11.868Z,92.81
2018-01-03T03:24:20.961Z,92.80
2018-01-03T03:25:25.816Z,92.71
2018-01-03T03:26:30.241Z,92.65
2018-01-03T03:27:34.552Z,92.53
2018-01-03T03:28:39.283Z,92.66
2018-01-03T03:29:44.416Z,92.53
2018-01-03T03:30:49.996Z,92.47
2018-01-03T03:31:54.285Z,92.47
2018-01-03T03:32:58.572Z,92.43
2018-01-03T03:34:03.031Z,92.34
2018-01-03T03:35:07.664Z,92.27
2018-01-03T03:36:11.968Z,92.17
2018-01-03T03:37:16.354Z,92.12
2018-01-03T03:38:20.976Z,92.08
2018-01-03T03:39:26.073Z,92.18
2018-01-03T03:40:30.678Z,92.02
2018-01-03T03:41:35.076Z,92.33
2018-01-03T03:42:39.426Z,92.49
2018-01-03T03:43:44.315Z,92.66
2018-01-03T03:44:48.744Z,92.62
2018-01-03T03:45:53.540Z,92.70
2018-01-03T03:46:58.901Z,92.88
2018-01-03T03:48:03.404Z,93.17
2018-01-03T03:49:08.112Z,93.14
2018-01-03T03:50:12.446Z,93.33
2018-01-03T03:51:16.749Z,93.14
2018-01-03T03:52:21.191Z,93.15
2018-01-03T03:53:25.832Z,93.10
2018-01-03T03:54:30.239Z,92.96
2018-01-03T03:55:34.932Z,93.07
2018-01-03T03:56:39.295Z,93.14
2018-01-03T03:57:43.620Z,93.11
2018-01-03T03:58:48.011Z,93.07
2018-01-03T03:59:52.747Z,93.34
2018-01-03T04:00:57.291Z,93.28
2018-01-03T04:02:01.680Z,93.04
2018-01-03T04:03:06.080Z,93.19
2018-01-03T04:04:10.412Z,93.12
2018-01-03T04:05:14.705Z,93.09
2018-01-03T04:06:19.425Z,92.99
2018-01-03T04:07:23.834Z,93.05
2018-01-03T04:08:28.484Z,93.37
2018-01-03T04:09:33.180Z,93.45
2018-01-03T04:10:37.653Z,93.47
2018-01-03T04:11:41.964Z,93.36
2018-01-03T04:12:46.268Z,93.43
2018-01-03T04:13:50.614Z,93.61
2018-01-03T04:14:55.293Z,93.29
2018-01-03T04:16:00.026Z,93.32
2018-01-03T04:17:04.493Z,92.99
2018-01-03T04:19:16.945Z,93.08
2018-01-03T04:20:21.251Z,92.76
2018-01-03T04:21:25.710Z,92.72
2018-01-03T04:22:29.992Z,92.76
2018-01-03T04:23:34.315Z,92.84
2018-01-03T04:24:38.673Z,92.76
2018-01-03T04:25:43.687Z,92.06
2018-01-03T04:26:48.295Z,91.62
2018-01-03T04:27:52.927Z,91.57
2018-01-03T04:28:57.284Z,91.20
2018-01-03T04:30:02.699Z,91.44
2018-01-03T04:31:07.058Z,91.89
2018-01-03T04:32:11.393Z,91.66
2018-01-03T04:33:15.790Z,91.66
2018-01-03T04:34:20.415Z,91.56
2018-01-03T04:35:24.869Z,91.46
2018-01-03T04:36:29.244Z,91.75
2018-01-03T04:37:33.603Z,92.21
2018-01-03T04:38:38.093Z,92.49
2018-01-03T04:39:42.870Z,92.82
2018-01-03T04:40:47.341Z,92.55
2018-01-03T04:41:51.681Z,92.25
2018-01-03T04:42:58.741Z,92.36
2018-01-03T04:44:03.097Z,92.24
2018-01-03T04:45:07.828Z,92.27
2018-01-03T04:46:12.521Z,92.71
2018-01-03T04:47:16.909Z,92.56
2018-01-03T04:48:22.499Z,92.39
2018-01-03T04:49:27.711Z,92.24
2018-01-03T04:50:31.980Z,92.29
2018-01-03T04:51:36.319Z,92.29
2018-01-03T04:52:40.743Z,92.11
2018-01-03T04:53:45.082Z,92.33
2018-01-03T04:54:50.427Z,92.28
2018-01-03T04:55:54.925Z,92.31
2018-01-03T04:56:59.402Z,92.40
2018-01-03T04:58:04.289Z,92.46
2018-01-03T04:59:08.681Z,92.59
2018-01-03T05:00:23.888Z,92.31
2018-01-03T05:01:31.196Z,91.34
2018-01-03T05:02:35.492Z,91.06
2018-01-03T05:03:39.963Z,91.37
2018-01-03T05:04:44.582Z,91.12
2018-01-03T05:05:49.038Z,91.05
2018-01-03T05:06:53.331Z,90.86
2018-01-03T05:07:57.837Z,90.45
2018-01-03T05:09:02.264Z,90.56
2018-01-03T05:10:07.608Z,90.72
2018-01-03T05:11:12.318Z,90.60
2018-01-03T05:12:16.641Z,90.80
2018-01-03T05:13:20.956Z,90.69
2018-01-03T05:14:25.396Z,90.88
2018-01-03T05:15:30.475Z,89.93
2018-01-03T05:16:35.233Z,90.33
2018-01-03T05:17:39.925Z,90.60
2018-01-03T05:18:44.216Z,90.94
2018-01-03T05:19:48.677Z,91.14
2018-01-03T05:20:53.913Z,90.92
2018-01-03T05:21:58.205Z,90.87
2018-01-03T05:23:02.663Z,90.59
2018-01-03T05:24:07.241Z,90.76
2018-01-03T05:25:12.021Z,90.62
2018-01-03T05:26:16.310Z,90.72
2018-01-03T05:27:20.630Z,90.58
2018-01-03T05:28:24.994Z,90.14
2018-01-03T05:29:30.357Z,89.86
2018-01-03T05:30:34.920Z,89.95
2018-01-03T05:31:39.253Z,89.46
2018-01-03T05:32:43.575Z,89.10
2018-01-03T05:33:47.944Z,89.21
2018-01-03T05:34:52.546Z,88.87
2018-01-03T05:35:57.750Z,88.92
2018-01-03T05:37:02.343Z,88.36
2018-01-03T05:38:07.031Z,88.34
2018-01-03T05:39:11.413Z,88.02
2018-01-03T05:40:15.907Z,88.33
2018-01-03T05:41:20.577Z,88.21
2018-01-03T05:42:24.867Z,87.99
2018-01-03T05:43:29.793Z,88.23
2018-01-03T05:44:34.180Z,87.95
2018-01-03T05:45:38.729Z,87.67
2018-01-03T05:46:43.078Z,87.80
2018-01-03T05:47:47.681Z,87.83
2018-01-03T05:48:52.912Z,88.07
2018-01-03T05:49:57.497Z,88.00
2018-01-03T05:51:01.912Z,88.41
2018-01-03T05:52:06.272Z,88.44
2018-01-03T05:53:10.637Z,88.76
2018-01-03T05:54:15.105Z,88.51
2018-01-03T05:55:19.406Z,88.94
2018-01-03T05:56:24.014Z,88.74
2018-01-03T05:57:28.977Z,88.80
2018-01-03T05:58:33.274Z,88.77
2018-01-03T05:59:37.667Z,88.39
2018-01-03T06:00:42.709Z,88.92
2018-01-03T06:01:47.140Z,89.04
2018-01-03T06:02:51.963Z,88.94
2018-01-03T06:03:56.729Z,88.92
2018-01-03T06:05:01.325Z,89.01
2018-01-03T06:06:06.013Z,89.37
2018-01-03T06:07:10.734Z,89.39
2018-01-03T06:08:15.233Z,89.36
2018-01-03T06:09:19.538Z,89.42
2018-01-03T06:10:23.940Z,89.29
2018-01-03T06:11:28.266Z,89.35
2018-01-03T06:12:32.582Z,89.25
2018-01-03T06:13:38.200Z,89.21
2018-01-03T06:14:42.981Z,89.32
2018-01-03T06:15:47.564Z,89.29
2018-01-03T06:16:53.032Z,89.34
2018-01-03T06:17:57.374Z,89.39
2018-01-03T06:19:01.718Z,89.45
2018-01-03T06:20:06.060Z,89.18
2018-01-03T06:21:10.384Z,89.51
2018-01-03T06:22:14.860Z,89.48
2018-01-03T06:23:19.245Z,89.47
2018-01-03T06:24:31.507Z,89.57
2018-01-03T06:25:35.862Z,89.71
2018-01-03T06:26:40.328Z,89.67
2018-01-03T06:27:44.988Z,89.43
2018-01-03T06:28:49.323Z,89.44
2018-01-03T06:29:53.812Z,89.46
2018-01-03T06:30:58.510Z,89.00
2018-01-03T06:32:03.249Z,89.01
2018-01-03T06:33:07.785Z,88.79
2018-01-03T06:34:12.096Z,88.52
2018-01-03T06:35:16.425Z,88.78
2018-01-03T06:36:20.738Z,88.61
2018-01-03T06:37:25.493Z,88.71
2018-01-03T06:38:29.793Z,88.45
2018-01-03T06:39:34.511Z,88.61
2018-01-03T06:40:39.108Z,88.74
2018-01-03T06:41:43.660Z,88.79
2018-01-03T06:42:48.844Z,88.49
2018-01-03T06:43:53.674Z,88.67
2018-01-03T06:44:59.067Z,88.81
2018-01-03T06:46:03.688Z,88.81
2018-01-03T06:47:08.019Z,89.06
2018-01-03T06:48:16.752Z,89.00
2018-01-03T06:49:21.069Z,89.10
2018-01-03T06:50:25.519Z,89.18
2018-01-03T06:51:30.821Z,89.07
2018-01-03T06:52:35.214Z,89.03
2018-01-03T06:53:39.652Z,89.07
2018-01-03T06:54:43.987Z,88.93
2018-01-03T06:55:49.053Z,89.09
2018-01-03T06:56:53.520Z,88.80
2018-01-03T06:57:57.835Z,88.54
2018-01-03T06:59:02.152Z,88.42
2018-01-03T07:00:08.150Z,87.79
2018-01-03T07:01:12.864Z,87.73
2018-01-03T07:02:17.230Z,87.48
2018-01-03T07:03:21.552Z,87.47
2018-01-03T07:04:25.971Z,87.87
2018-01-03T07:05:30.259Z,87.79
2018-01-03T07:06:34.881Z,87.05
2018-01-03T07:07:39.193Z,87.23
2018-01-03T07:08:44.119Z,87.25
2018-01-03T07:09:48.536Z,87.30
2018-01-03T07:10:52.919Z,86.89
2018-01-03T07:11:57.272Z,86.14
2018-01-03T07:13:01.911Z,86.03
2018-01-03T07:14:07.341Z,86.13
2018-01-03T07:15:14.536Z,85.43
2018-01-03T07:16:19.089Z,85.78
2018-01-03T07:18:22.006Z,84.74
2018-01-03T07:19:28.404Z,84.97
2018-01-03T07:20:32.757Z,85.04
2018-01-03T07:21:37.134Z,85.01
2018-01-03T07:22:41.563Z,84.67
2018-01-03T07:23:45.887Z,84.82
2018-01-03T07:24:50.257Z,84.67
2018-01-03T07:25:54.655Z,85.01
2018-01-03T07:26:58.972Z,84.58
2018-01-03T07:28:03.345Z,84.63
2018-01-03T07:29:07.837Z,84.17
2018-01-03T07:30:14.253Z,84.77
2018-01-03T07:31:18.630Z,85.03
2018-01-03T07:32:27.815Z,84.70
2018-01-03T07:33:32.177Z,85.21
2018-01-03T07:34:36.521Z,84.71
2018-01-03T07:35:40.973Z,84.46
2018-01-03T07:36:45.365Z,84.63
2018-01-03T07:37:49.674Z,84.57
2018-01-03T07:38:54.298Z,84.49
2018-01-03T07:39:58.698Z,84.43
2018-01-03T07:41:03.178Z,84.45
2018-01-03T07:42:07.564Z,84.37
2018-01-03T07:43:12.552Z,84.74
2018-01-03T07:44:16.910Z,83.81
2018-01-03T07:45:22.149Z,83.37
2018-01-03T07:46:27.492Z,83.96
2018-01-03T07:47:31.937Z,83.30
2018-01-03T07:48:36.321Z,83.74
2018-01-03T07:49:41.494Z,83.37
2018-01-03T07:50:49.747Z,83.52
2018-01-03T07:51:55.156Z,83.66
2018-01-03T07:53:00.673Z,83.56
2018-01-03T07:54:05.981Z,83.22
2018-01-03T07:55:10.365Z,83.28
2018-01-03T07:56:18.573Z,83.23
2018-01-03T07:57:23.164Z,83.69
2018-01-03T07:58:28.438Z,83.49
2018-01-03T07:59:32.781Z,83.60
2018-01-03T08:00:37.595Z,83.23
2018-01-03T08:01:42.818Z,83.48
2018-01-03T08:02:47.168Z,83.25
2018-01-03T08:03:51.929Z,82.78
2018-01-03T08:04:56.324Z,83.61
2018-01-03T08:06:01.686Z,83.24
2018-01-03T08:07:06.081Z,83.34
2018-01-03T08:08:10.664Z,83.40
2018-01-03T08:09:15.570Z,83.58
2018-01-03T08:10:20.031Z,84.08
2018-01-03T08:11:24.367Z,84.67
2018-01-03T08:12:29.256Z,85.15
2018-01-03T08:13:33.690Z,85.21
2018-01-03T08:14:38.028Z,85.62
2018-01-03T08:15:42.764Z,85.30
2018-01-03T08:16:47.626Z,85.32
2018-01-03T08:17:51.964Z,85.49
2018-01-03T08:18:56.584Z,85.40
2018-01-03T08:20:00.945Z,85.07
2018-01-03T08:21:05.429Z,84.34
2018-01-03T08:22:10.357Z,84.21
2018-01-03T08:23:16.129Z,84.04
2018-01-03T08:24:20.622Z,83.08
2018-01-03T08:25:33.862Z,83.58
2018-01-03T08:26:38.635Z,83.89
2018-01-03T08:27:42.997Z,83.59
2018-01-03T08:28:47.758Z,83.57
2018-01-03T08:29:52.324Z,82.94
2018-01-03T08:30:56.901Z,83.32
2018-01-03T08:32:01.340Z,83.08
2018-01-03T08:33:06.082Z,83.72
2018-01-03T08:34:10.760Z,82.86
2018-01-03T08:35:15.653Z,82.67
2018-01-03T08:36:25.304Z,83.24
2018-01-03T08:37:30.302Z,83.27
2018-01-03T08:38:34.654Z,83.31
2018-01-03T08:39:39.076Z,83.11
2018-01-03T08:40:43.817Z,82.90
2018-01-03T08:41:48.172Z,83.47
2018-01-03T08:42:52.600Z,82.54
2018-01-03T08:43:56.980Z,83.07
2018-01-03T08:45:03.228Z,83.29
2018-01-03T08:46:07.907Z,82.66
2018-01-03T08:47:13.043Z,82.98
2018-01-03T08:48:25.921Z,83.41
2018-01-03T08:49:30.955Z,83.25
2018-01-03T08:50:35.348Z,83.16
2018-01-03T08:51:39.792Z,83.68
2018-01-03T08:52:44.605Z,83.82
2018-01-03T08:53:48.940Z,84.45
2018-01-03T08:54:53.360Z,84.87
2018-01-03T08:55:58.157Z,85.05
2018-01-03T08:57:02.570Z,85.13
2018-01-03T08:58:09.380Z,85.22
2018-01-03T08:59:13.703Z,85.22
2018-01-03T09:00:18.376Z,85.32
2018-01-03T09:01:22.938Z,85.67
2018-01-03T09:02:28.365Z,85.85
2018-01-03T09:03:33.052Z,85.86
2018-01-03T09:04:37.521Z,85.64
2018-01-03T09:05:41.905Z,85.70
2018-01-03T09:06:46.217Z,84.91
2018-01-03T09:07:50.618Z,84.99
2018-01-03T09:08:55.369Z,85.14
2018-01-03T09:10:00.087Z,85.19
2018-01-03T09:11:04.428Z,85.12
2018-01-03T09:12:09.052Z,85.36
2018-01-03T09:13:13.493Z,85.23
2018-01-03T09:14:17.882Z,85.21
2018-01-03T09:15:32.809Z,85.08
2018-01-03T09:16:37.893Z,84.85
2018-01-03T09:17:42.228Z,84.53
2018-01-03T09:18:46.548Z,84.67
2018-01-03T09:19:50.932Z,84.50
2018-01-03T09:20:55.281Z,84.17
2018-01-03T09:22:00.015Z,83.99
2018-01-03T09:23:04.420Z,84.46
2018-01-03T09:24:08.777Z,84.13
2018-01-03T09:25:14.564Z,83.58
2018-01-03T09:26:19.056Z,83.58
2018-01-03T09:27:23.429Z,83.65
2018-01-03T09:28:27.883Z,83.89
2018-01-03T09:29:32.274Z,83.84
2018-01-03T09:30:37.122Z,83.34
2018-01-03T09:31:41.484Z,83.77
2018-01-03T09:32:46.237Z,83.36
2018-01-03T09:33:50.852Z,83.12
2018-01-03T09:34:55.186Z,83.48
2018-01-03T09:35:59.633Z,82.15
2018-01-03T09:37:05.048Z,82.79
2018-01-03T09:38:09.461Z,83.03
2018-01-03T09:39:13.805Z,83.17
2018-01-03T09:40:18.502Z,83.12
2018-01-03T09:41:23.414Z,83.24
2018-01-03T09:42:28.847Z,82.56
2018-01-03T09:43:33.965Z,82.53
2018-01-03T09:44:38.496Z,82.60
2018-01-03T09:45:43.175Z,82.03
2018-01-03T09:46:47.575Z,81.92
2018-01-03T09:47:51.888Z,82.61
2018-01-03T09:48:57.317Z,82.61
2018-01-03T09:50:01.804Z,81.61
2018-01-03T09:51:06.316Z,81.65
2018-01-03T09:52:11.080Z,81.69
2018-01-03T09:53:16.012Z,81.98
2018-01-03T09:54:20.577Z,81.39
2018-01-03T09:55:24.942Z,81.60
2018-01-03T09:56:30.276Z,81.65
2018-01-03T09:57:38.036Z,81.92
2018-01-03T09:58:42.401Z,81.63
2018-01-03T09:59:46.832Z,81.13
2018-01-03T10:00:51.393Z,81.65
2018-01-03T10:01:57.160Z,82.13
2018-01-03T10:03:02.847Z,81.65
2018-01-03T10:04:07.192Z,81.83
2018-01-03T10:05:19.145Z,82.13
2018-01-03T10:06:27.943Z,82.04
2018-01-03T10:07:42.549Z,81.85
2018-01-03T10:08:47.540Z,82.24
2018-01-03T10:09:51.915Z,81.87
2018-01-03T10:10:56.677Z,82.08
2018-01-03T10:12:01.028Z,82.18
2018-01-03T10:13:05.557Z,81.66
2018-01-03T10:14:10.035Z,82.21
2018-01-03T10:15:16.943Z,82.33
2018-01-03T10:16:21.482Z,82.71
2018-01-03T10:17:32.443Z,82.82
2018-01-03T10:18:36.885Z,83.63
2018-01-03T10:19:41.233Z,83.87
2018-01-03T10:20:45.625Z,84.10
2018-01-03T10:21:50.385Z,84.06
2018-01-03T10:22:54.980Z,84.58
2018-01-03T10:23:59.384Z,84.72
2018-01-03T10:25:04.101Z,84.24
2018-01-03T10:26:08.589Z,84.77
2018-01-03T10:27:14.182Z,85.16
2018-01-03T10:28:18.677Z,84.83
2018-01-03T10:29:23.073Z,84.35
2018-01-03T10:30:28.573Z,84.83
2018-01-03T10:31:33.215Z,84.39
2018-01-03T10:32:38.377Z,84.79
2018-01-03T10:33:43.099Z,85.04
2018-01-03T10:34:47.623Z,85.27
2018-01-03T10:35:52.865Z,85.35
2018-01-03T10:36:57.216Z,85.70
2018-01-03T10:38:01.643Z,86.01
2018-01-03T10:39:06.374Z,86.07
2018-01-03T10:40:18.128Z,86.47
2018-01-03T10:41:22.872Z,85.98
2018-01-03T10:42:28.885Z,85.60
2018-01-03T10:43:33.407Z,86.24
2018-01-03T10:44:38.147Z,85.73
2018-01-03T10:45:42.853Z,85.78
2018-01-03T10:46:47.260Z,86.17
2018-01-03T10:47:51.688Z,86.37
2018-01-03T10:48:56.457Z,86.77
2018-01-03T10:50:00.930Z,86.69
2018-01-03T10:51:05.352Z,86.49
2018-01-03T10:52:09.729Z,86.85
2018-01-03T10:53:17.684Z,87.11
2018-01-03T10:54:22.207Z,87.13
2018-01-03T10:55:27.916Z,87.63
2018-01-03T10:56:32.661Z,87.29
2018-01-03T10:57:37.254Z,87.64
2018-01-03T10:58:41.824Z,87.26
2018-01-03T10:59:46.199Z,87.72
2018-01-03T11:00:51.135Z,88.22
2018-01-03T11:01:55.619Z,87.77
2018-01-03T11:03:00.408Z,87.58
2018-01-03T11:04:05.183Z,88.22
2018-01-03T11:05:09.589Z,87.99
2018-01-03T11:06:14.922Z,88.13
2018-01-03T11:07:22.756Z,88.64
2018-01-03T11:08:27.105Z,88.36
2018-01-03T11:09:32.588Z,88.15
2018-01-03T11:10:36.997Z,88.72
2018-01-03T11:11:41.423Z,88.13
2018-01-03T11:12:45.925Z,88.25
2018-01-03T11:13:50.706Z,88.66
2018-01-03T11:14:55.136Z,89.30
2018-01-03T11:16:00.492Z,88.83
2018-01-03T11:17:04.452Z,89.26
2018-01-03T11:18:08.896Z,89.29
2018-01-03T11:19:13.352Z,89.49
2018-01-03T11:20:17.742Z,89.10
2018-01-03T11:21:22.689Z,88.96
2018-01-03T11:22:27.383Z,89.25
2018-01-03T11:23:32.776Z,89.42
2018-01-03T11:24:37.349Z,89.42
2018-01-03T11:25:42.069Z,89.98
2018-01-03T11:26:46.516Z,90.27
2018-01-03T11:27:50.982Z,90.22
2018-01-03T11:28:55.436Z,89.54
2018-01-03T11:29:59.861Z,90.06
2018-01-03T11:31:04.467Z,90.06
2018-01-03T11:32:13.490Z,90.13
2018-01-03T11:33:19.018Z,89.91
2018-01-03T11:34:23.479Z,90.09
2018-01-03T11:35:28.683Z,90.13
2018-01-03T11:36:33.258Z,90.01
2018-01-03T11:37:37.758Z,89.99
2018-01-03T11:38:42.786Z,90.37
2018-01-03T11:39:48.214Z,90.27
2018-01-03T11:40:52.762Z,89.89
2018-01-03T11:41:57.326Z,89.91
2018-01-03T11:43:01.917Z,89.95
2018-01-03T11:44:06.709Z,90.29
2018-01-03T11:45:13.675Z,89.88
2018-01-03T11:46:18.728Z,90.22
2018-01-03T11:47:23.419Z,90.41
2018-01-03T11:48:28.119Z,90.13
2018-01-03T11:49:32.743Z,90.54
2018-01-03T11:50:37.409Z,90.30
2018-01-03T11:51:41.783Z,90.84
2018-01-03T11:52:46.348Z,90.79
2018-01-03T11:53:50.757Z,90.72
2018-01-03T11:54:55.153Z,90.61
2018-01-03T11:55:59.580Z,91.05
2018-01-03T11:57:04.427Z,91.04
2018-01-03T11:58:08.833Z,91.60
2018-01-03T11:59:11.640Z,91.32
2018-01-03T12:00:17.623Z,90.86
2018-01-03T12:01:22.055Z,91.52
2018-01-03T12:02:27.917Z,91.60
2018-01-03T12:03:32.476Z,91.24
2018-01-03T12:04:36.977Z,91.30
2018-01-03T12:05:41.638Z,91.56
2018-01-03T12:06:46.807Z,91.66
2018-01-03T12:07:51.294Z,91.64
2018-01-03T12:08:56.865Z,91.81
2018-01-03T12:10:01.395Z,91.73
2018-01-03T12:11:05.778Z,91.88
2018-01-03T12:12:10.244Z,91.82
2018-01-03T12:13:14.710Z,91.81
2018-01-03T12:14:19.620Z,91.93
2018-01-03T12:15:24.577Z,91.80
2018-01-03T12:16:29.317Z,91.98
2018-01-03T12:17:33.807Z,92.10
2018-01-03T12:18:38.258Z,92.12
2018-01-03T12:19:42.766Z,92.27
2018-01-03T12:20:47.183Z,92.61
2018-01-03T12:21:51.590Z,92.90
2018-01-03T12:22:56.022Z,92.84
2018-01-03T12:24:00.583Z,92.57
2018-01-03T12:25:05.358Z,92.35
2018-01-03T12:26:09.882Z,92.27
2018-01-03T12:27:15.184Z,92.32
2018-01-03T12:28:20.615Z,92.21
2018-01-03T12:29:25.047Z,92.23
2018-01-03T12:30:29.531Z,92.57
2018-01-03T12:31:34.171Z,92.35
2018-01-03T12:32:39.815Z,92.09
2018-01-03T12:33:49.717Z,92.15
2018-01-03T12:34:54.175Z,92.58
2018-01-03T12:35:58.722Z,92.71
2018-01-03T12:37:09.521Z,92.97
2018-01-03T12:38:14.837Z,92.84
2018-01-03T12:39:19.693Z,92.87
2018-01-03T12:40:24.274Z,92.97
2018-01-03T12:41:28.738Z,93.24
2018-01-03T12:42:33.355Z,93.33
2018-01-03T12:43:37.964Z,93.17
2018-01-03T12:44:42.503Z,93.00
2018-01-03T12:45:47.790Z,93.21
2018-01-03T12:46:52.550Z,93.23
2018-01-03T12:47:57.515Z,93.31
2018-01-03T12:49:02.847Z,93.20
2018-01-03T12:50:07.582Z,93.30
2018-01-03T12:51:12.541Z,93.63
2018-01-03T12:52:17.893Z,93.62
2018-01-03T12:53:22.540Z,93.61
2018-01-03T12:54:27.162Z,93.83
2018-01-03T12:55:33.270Z,93.77
2018-01-03T12:56:37.871Z,93.88
2018-01-03T12:57:42.620Z,93.81
2018-01-03T12:58:47.233Z,93.80
2018-01-03T12:59:51.991Z,93.33
2018-01-03T13:00:56.700Z,93.18
2018-01-03T13:02:01.279Z,93.13
2018-01-03T13:03:06.027Z,92.98
2018-01-03T13:04:10.449Z,92.90
2018-01-03T13:05:15.612Z,92.95
2018-01-03T13:06:20.101Z,92.98
2018-01-03T13:07:24.584Z,93.21
2018-01-03T13:08:29.154Z,93.09
2018-01-03T13:09:33.662Z,92.31
2018-01-03T13:10:38.284Z,92.40
2018-01-03T13:11:42.687Z,92.35
2018-01-03T13:12:47.126Z,92.75
2018-01-03T13:13:51.889Z,92.84
2018-01-03T13:14:58.077Z,92.68
2018-01-03T13:16:02.809Z,92.63
2018-01-03T13:17:07.468Z,92.29
2018-01-03T13:18:12.774Z,91.72
2018-01-03T13:19:17.332Z,91.83
2018-01-03T13:20:22.336Z,91.68
2018-01-03T13:21:27.925Z,91.35
2018-01-03T13:22:33.087Z,91.10
2018-01-03T13:23:37.885Z,91.14
2018-01-03T13:24:42.747Z,91.21
2018-01-03T13:25:47.245Z,91.13
2018-01-03T13:26:51.806Z,91.07
2018-01-03T13:27:56.229Z,91.32
2018-01-03T13:29:00.681Z,90.72
2018-01-03T13:30:07.236Z,90.16
2018-01-03T13:31:11.798Z,90.19
2018-01-03T13:32:17.667Z,90.18
2018-01-03T13:33:22.180Z,90.54
2018-01-03T13:34:26.632Z,90.28
2018-01-03T13:35:32.236Z,90.06
2018-01-03T13:36:37.057Z,89.96
2018-01-03T13:37:41.621Z,90.13
2018-01-03T13:38:46.287Z,90.22
2018-01-03T13:39:51.242Z,90.31
2018-01-03T13:40:56.672Z,90.14
2018-01-03T13:42:01.117Z,90.15
2018-01-03T13:43:08.935Z,90.09
2018-01-03T13:44:14.185Z,90.42
2018-01-03T13:45:19.158Z,90.63
2018-01-03T13:46:23.605Z,90.45
2018-01-03T13:47:29.327Z,90.25
2018-01-03T13:48:34.104Z,90.61
2018-01-03T13:49:38.665Z,90.51
2018-01-03T13:50:43.319Z,90.85
2018-01-03T13:51:48.012Z,90.61
2018-01-03T13:52:52.479Z,90.59
2018-01-03T13:53:57.118Z,91.29
2018-01-03T13:55:01.705Z,91.05
2018-01-03T13:56:07.118Z,90.39
2018-01-03T13:57:11.876Z,90.42
2018-01-03T13:58:17.524Z,90.36